Avoca, Arkansas
Current Conditions -  °F | °C
As of 12:57 PM on Tuesday 21 Oct 2014 (Local Time) from KROG Reporting Station
Clear Clear  
Wind Chill: 71°   Ceiling: Unl
Heat Index: 71°   Visibility: 10mi
Dew Point: 54°   Wind: 5mph
Humidity: 55%   Direction: 230°SW
Pressure: 30.14"   Gusts: NA
Location:  36.4°N, 94.07°W
Report Text: KROG 211757Z 23004KT 10SM CLR 22/12 A3014 RMK AO2 SLP200 60001 T02170122 10217 20111 58009
Loading
Personal Weather Stations






























Interactive Weather Map
Tropical Storm Tracking
New forecast layout! Learn more

10-Day Weather Forecast

Advertisements
Track Severe Weather on mobile